createdAt,value
2023-05-19T00:00:59.415Z,101176.50
2023-05-19T00:03:27.798Z,101179.25
2023-05-19T00:05:54.847Z,101185.31
2023-05-19T00:08:23.600Z,101179.50
2023-05-19T00:10:51.297Z,101189.72
2023-05-19T00:13:18.175Z,101175.91
2023-05-19T00:15:45.162Z,101175.38
2023-05-19T00:18:12.034Z,101168.44
2023-05-19T00:20:38.819Z,101170.38
2023-05-19T00:23:05.454Z,101165.97
2023-05-19T00:25:32.249Z,101156.53
2023-05-19T00:28:00.334Z,101165.97
2023-05-19T00:30:29.637Z,101157.34
2023-05-19T00:32:57.070Z,101155.69
2023-05-19T00:35:24.557Z,101162.63
2023-05-19T00:37:51.227Z,101162.66
2023-05-19T00:40:22.456Z,101179.81
2023-05-19T00:42:49.097Z,101176.00
2023-05-19T00:45:15.920Z,101176.50
2023-05-19T00:47:42.734Z,101180.41
2023-05-19T00:50:10.176Z,101177.38
2023-05-19T00:52:38.378Z,101179.88
2023-05-19T00:55:08.291Z,101179.59
2023-05-19T00:57:35.070Z,101176.81
2023-05-19T01:00:01.849Z,101169.38
2023-05-19T01:02:29.147Z,101181.84
2023-05-19T01:04:57.557Z,101175.75
2023-05-19T01:07:24.292Z,101174.63
2023-05-19T01:09:52.307Z,101171.03
2023-05-19T01:12:19.258Z,101166.03
2023-05-19T01:14:47.459Z,101159.94
2023-05-19T01:17:22.324Z,101163.84
2023-05-19T01:20:08.455Z,101158.84
2023-05-19T01:23:02.831Z,101160.78
2023-05-19T01:26:07.428Z,101156.34
2023-05-19T01:29:02.561Z,101151.91
2023-05-19T01:31:29.829Z,101153.84
2023-05-19T01:33:58.446Z,101146.13
2023-05-19T01:36:30.140Z,101145.81
2023-05-19T01:38:59.178Z,101140.56
2023-05-19T01:41:26.824Z,101144.16
2023-05-19T01:43:54.035Z,101148.31
2023-05-19T01:46:21.501Z,101151.09
2023-05-19T01:48:48.658Z,101141.66
2023-05-19T01:51:15.417Z,101145.56
2023-05-19T01:53:42.221Z,101154.97
2023-05-19T01:56:09.146Z,101156.06
2023-05-19T01:58:46.379Z,101153.03
2023-05-19T02:01:34.213Z,101155.50
2023-05-19T02:04:16.420Z,101167.44
2023-05-19T02:07:03.981Z,101171.31
2023-05-19T02:10:05.386Z,101163.56
2023-05-19T02:12:36.291Z,101162.44
2023-05-19T02:15:15.660Z,101169.34
2023-05-19T02:17:47.074Z,101160.22
2023-05-19T02:20:15.632Z,101168.56
2023-05-19T02:22:42.872Z,101165.47
2023-05-19T02:25:11.666Z,101155.81
2023-05-19T02:27:41.698Z,101151.63
2023-05-19T02:30:11.590Z,101156.34
2023-05-19T02:32:38.493Z,101145.53
2023-05-19T02:35:05.860Z,101153.28
2023-05-19T02:37:32.992Z,101151.09
2023-05-19T02:39:59.895Z,101150.81
2023-05-19T02:42:26.579Z,101150.00
2023-05-19T02:44:54.771Z,101155.53
2023-05-19T02:47:24.461Z,101163.28
2023-05-19T02:49:51.185Z,101158.28
2023-05-19T02:52:17.819Z,101168.00
2023-05-19T02:54:44.804Z,101173.25
2023-05-19T02:57:11.612Z,101171.03
2023-05-19T02:59:38.599Z,101171.03
2023-05-19T03:02:05.702Z,101171.88
2023-05-19T03:04:32.774Z,101167.72
2023-05-19T03:06:59.659Z,101177.13
2023-05-19T03:09:26.406Z,101182.13
2023-05-19T03:11:53.153Z,101183.75
2023-05-19T03:14:19.830Z,101179.91
2023-05-19T03:16:50.838Z,101176.84
2023-05-19T03:19:17.927Z,101196.78
2023-05-19T03:21:44.593Z,101191.25
2023-05-19T03:24:11.239Z,101185.44
2023-05-19T03:26:37.975Z,101185.41
2023-05-19T03:29:04.743Z,101181.81
2023-05-19T03:31:31.537Z,101180.16
2023-05-19T03:33:58.362Z,101171.88
2023-05-19T03:36:25.245Z,101177.09
2023-05-19T03:38:52.099Z,101177.41
2023-05-19T03:41:19.054Z,101180.72
2023-05-19T03:43:47.905Z,101181.56
2023-05-19T03:46:14.617Z,101174.34
2023-05-19T03:48:41.333Z,101173.25
2023-05-19T03:51:08.320Z,101177.94
2023-05-19T03:53:36.785Z,101175.19
2023-05-19T03:56:03.661Z,101180.41
2023-05-19T03:58:30.446Z,101183.75
2023-05-19T04:00:57.523Z,101180.72
2023-05-19T04:03:24.620Z,101189.28
2023-05-19T04:05:51.782Z,101179.00
2023-05-19T04:08:18.548Z,101177.31
2023-05-19T04:10:45.457Z,101175.38
2023-05-19T04:13:13.189Z,101174.28
2023-05-19T04:15:40.009Z,101178.44
2023-05-19T04:18:07.221Z,101166.22
2023-05-19T04:20:34.320Z,101173.66
2023-05-19T04:23:02.257Z,101184.47
2023-05-19T04:25:29.091Z,101186.94
2023-05-19T04:27:55.815Z,101200.22
2023-05-19T04:30:22.832Z,101191.56
2023-05-19T04:32:49.703Z,101193.50
2023-05-19T04:35:16.774Z,101201.25
2023-05-19T04:37:44.866Z,101187.34
2023-05-19T04:40:13.190Z,101190.75
2023-05-19T04:42:39.899Z,101183.44
2023-05-19T04:45:07.635Z,101178.38
2023-05-19T04:47:37.473Z,101180.03
2023-05-19T04:50:07.667Z,101171.13
2023-05-19T04:52:34.366Z,101178.00
2023-05-19T04:55:04.339Z,101182.91
2023-05-19T04:57:36.933Z,101191.63
2023-05-19T05:00:05.479Z,101190.63
2023-05-19T05:02:32.239Z,101184.06
2023-05-19T05:04:58.955Z,101180.81
2023-05-19T05:07:26.227Z,101179.97
2023-05-19T05:09:52.985Z,101184.16
2023-05-19T05:12:20.227Z,101186.59
2023-05-19T05:14:47.458Z,101193.28
2023-05-19T05:17:14.525Z,101180.28
2023-05-19T05:19:41.756Z,101185.88
2023-05-19T05:22:11.979Z,101198.38
2023-05-19T05:24:38.939Z,101198.81
2023-05-19T05:27:06.130Z,101200.69
2023-05-19T05:29:36.901Z,101198.59
2023-05-19T05:32:05.822Z,101193.00
2023-05-19T05:34:32.764Z,101187.75
2023-05-19T05:36:59.731Z,101194.25
2023-05-19T05:39:33.576Z,101213.22
2023-05-19T05:42:03.679Z,101215.59
2023-05-19T05:44:31.428Z,101202.25
2023-05-19T05:46:58.471Z,101209.34
2023-05-19T05:49:25.576Z,101223.41
2023-05-19T05:52:05.146Z,101213.19
2023-05-19T05:54:33.833Z,101210.53
2023-05-19T05:57:01.316Z,101205.94
2023-05-19T05:59:31.846Z,101206.28
2023-05-19T06:01:59.216Z,101207.13
2023-05-19T06:04:26.226Z,101209.06
2023-05-19T06:06:52.954Z,101216.06
2023-05-19T06:09:20.820Z,101211.31
2023-05-19T06:11:47.906Z,101214.41
2023-05-19T06:14:15.146Z,101216.59
2023-05-19T06:16:42.086Z,101218.00
2023-05-19T06:19:11.847Z,101203.25
2023-05-19T06:21:38.808Z,101202.97
2023-05-19T06:24:08.082Z,101210.19
2023-05-19T06:29:31.547Z,101203.22
2023-05-19T06:32:05.598Z,101208.75
2023-05-19T06:37:24.676Z,101223.00
2023-05-19T06:40:04.998Z,101216.69
2023-05-19T06:42:34.816Z,101213.59
2023-05-19T06:45:01.784Z,101211.56
2023-05-19T06:47:33.310Z,101209.38
2023-05-19T06:50:00.024Z,101213.00
2023-05-19T06:52:29.401Z,101205.25
2023-05-19T06:54:56.063Z,101207.19
2023-05-19T06:57:22.964Z,101208.31
2023-05-19T06:59:50.067Z,101204.63
2023-05-19T07:02:17.208Z,101208.00
2023-05-19T07:04:47.104Z,101216.72
2023-05-19T07:07:13.964Z,101222.84
2023-05-19T07:09:40.685Z,101226.00
2023-05-19T07:12:07.681Z,101225.66
2023-05-19T07:14:34.707Z,101219.94
2023-05-19T07:17:01.445Z,101227.88
2023-05-19T07:19:28.266Z,101226.13
2023-05-19T07:21:55.583Z,101232.69
2023-05-19T07:24:24.482Z,101227.28
2023-05-19T07:26:51.201Z,101221.50
2023-05-19T07:29:20.782Z,101230.47
2023-05-19T07:31:48.341Z,101224.06
2023-05-19T07:34:15.076Z,101235.16
2023-05-19T07:36:41.813Z,101218.31
2023-05-19T07:39:08.814Z,101225.66
2023-05-19T07:41:39.241Z,101223.09
2023-05-19T07:44:08.180Z,101222.78
2023-05-19T07:46:35.414Z,101224.78
2023-05-19T07:49:13.135Z,101221.50
2023-05-19T07:51:40.000Z,101225.63
2023-05-19T07:54:06.753Z,101220.91
2023-05-19T07:56:47.909Z,101212.28
2023-05-19T07:59:16.874Z,101203.22
2023-05-19T08:01:45.867Z,101208.84
2023-05-19T08:04:13.270Z,101209.28
2023-05-19T08:06:44.085Z,101214.06
2023-05-19T08:12:26.250Z,101211.63
2023-05-19T08:14:53.196Z,101209.53
2023-05-19T08:17:49.602Z,101198.28
2023-05-19T08:20:16.449Z,101202.66
2023-05-19T08:23:03.898Z,101194.13
2023-05-19T08:25:30.806Z,101206.97
2023-05-19T08:27:57.952Z,101205.66
2023-05-19T08:30:29.077Z,101194.41
2023-05-19T08:32:55.972Z,101197.53
2023-05-19T08:35:22.807Z,101186.81
2023-05-19T08:37:49.438Z,101200.34
2023-05-19T08:40:22.229Z,101203.75
2023-05-19T08:42:51.948Z,101207.09
2023-05-19T08:45:18.682Z,101205.47
2023-05-19T08:47:46.863Z,101204.16
2023-05-19T08:50:48.968Z,101198.56
2023-05-19T08:53:34.255Z,101199.25
2023-05-19T08:56:34.393Z,101208.66
2023-05-19T08:59:16.637Z,101204.72
2023-05-19T09:01:54.564Z,101189.88
2023-05-19T09:04:47.547Z,101195.09
2023-05-19T09:07:18.959Z,101195.19
2023-05-19T09:13:03.838Z,101196.38
2023-05-19T09:15:31.844Z,101193.31
2023-05-19T09:18:12.544Z,101205.16
2023-05-19T09:21:09.284Z,101209.44
2023-05-19T09:23:41.928Z,101196.72
2023-05-19T09:26:09.656Z,101204.41
2023-05-19T09:28:37.401Z,101197.22
2023-05-19T09:31:11.181Z,101200.78
2023-05-19T09:34:09.505Z,101183.03
2023-05-19T09:36:43.993Z,101191.22
2023-05-19T09:39:42.045Z,101184.59
2023-05-19T09:45:12.304Z,101186.00
2023-05-19T09:47:54.829Z,101187.53
2023-05-19T09:50:27.628Z,101178.53
2023-05-19T09:52:58.449Z,101185.81
2023-05-19T09:55:35.456Z,101168.84
2023-05-19T09:58:06.706Z,101165.03
2023-05-19T10:00:34.473Z,101160.56
2023-05-19T10:03:16.147Z,101163.88
2023-05-19T10:05:50.714Z,101156.84
2023-05-19T10:08:17.856Z,101165.06
2023-05-19T10:10:48.669Z,101167.09
2023-05-19T10:13:16.671Z,101172.28
2023-05-19T10:15:58.245Z,101166.16
2023-05-19T10:18:27.338Z,101166.75
2023-05-19T10:20:55.714Z,101164.75
2023-05-19T10:23:22.781Z,101147.53
2023-05-19T10:25:51.493Z,101155.63
2023-05-19T10:28:22.866Z,101152.00
2023-05-19T10:30:52.135Z,101144.38
2023-05-19T10:33:21.908Z,101144.94
2023-05-19T10:35:51.264Z,101147.38
2023-05-19T10:38:32.942Z,101143.28
2023-05-19T10:41:23.908Z,101146.56
2023-05-19T10:44:13.893Z,101133.66
2023-05-19T10:46:47.008Z,101124.97
2023-05-19T10:49:25.895Z,101136.66
2023-05-19T10:51:56.099Z,101127.97
2023-05-19T10:54:46.689Z,101125.91
2023-05-19T10:57:17.812Z,101123.81
2023-05-19T10:59:44.909Z,101114.78
2023-05-19T11:02:37.360Z,101111.88
2023-05-19T11:05:15.304Z,101112.78
2023-05-19T11:07:43.098Z,101117.41
2023-05-19T11:10:10.857Z,101115.84
2023-05-19T11:12:42.547Z,101117.72
2023-05-19T11:15:16.317Z,101130.66
2023-05-19T11:17:50.250Z,101119.16
2023-05-19T11:20:32.607Z,101118.69
2023-05-19T11:23:18.186Z,101126.31
2023-05-19T11:25:51.765Z,101127.13
2023-05-19T11:28:22.272Z,101123.25
2023-05-19T11:30:49.474Z,101125.50
2023-05-19T11:33:16.486Z,101127.13
2023-05-19T11:35:47.400Z,101114.22
2023-05-19T11:38:24.940Z,101117.03
2023-05-19T11:40:55.483Z,101106.44
2023-05-19T11:43:36.084Z,101110.91
2023-05-19T11:46:10.665Z,101100.56
2023-05-19T11:48:37.926Z,101103.81
2023-05-19T11:51:07.931Z,101102.06
2023-05-19T11:53:42.389Z,101103.31
2023-05-19T11:56:12.678Z,101101.63
2023-05-19T11:58:42.717Z,101093.66
2023-05-19T12:01:09.910Z,101094.94
2023-05-19T12:03:37.209Z,101099.75
2023-05-19T12:06:10.577Z,101090.53
2023-05-19T12:08:37.361Z,101106.38
2023-05-19T12:11:05.128Z,101108.09
2023-05-19T12:13:31.886Z,101090.56
2023-05-19T12:16:03.598Z,101098.72
2023-05-19T12:18:36.750Z,101097.13
2023-05-19T12:21:04.572Z,101094.69
2023-05-19T12:23:35.344Z,101099.44
2023-05-19T12:26:05.068Z,101088.16
2023-05-19T12:28:31.914Z,101088.16
2023-05-19T12:30:59.045Z,101091.47
2023-05-19T12:33:26.017Z,101092.28
2023-05-19T12:35:55.112Z,101086.16
2023-05-19T12:38:22.844Z,101082.25
2023-05-19T12:40:50.274Z,101082.69
2023-05-19T12:43:23.555Z,101077.91
2023-05-19T12:45:50.328Z,101079.53
2023-05-19T12:48:17.420Z,101075.16
2023-05-19T12:50:54.888Z,101070.03
2023-05-19T12:53:26.602Z,101074.97
2023-05-19T12:55:53.513Z,101077.06
2023-05-19T12:58:21.191Z,101063.50
2023-05-19T13:00:54.814Z,101060.25
2023-05-19T13:03:21.886Z,101060.25
2023-05-19T13:05:50.166Z,101064.16
2023-05-19T13:08:24.267Z,101069.66
2023-05-19T13:10:53.648Z,101062.81
2023-05-19T13:13:20.361Z,101056.66
2023-05-19T13:15:50.477Z,101063.50
2023-05-19T13:18:17.996Z,101066.13
2023-05-19T13:20:45.867Z,101059.34
2023-05-19T13:23:13.512Z,101053.56
2023-05-19T13:25:41.327Z,101057.53
2023-05-19T13:28:12.819Z,101051.81
2023-05-19T13:30:40.916Z,101054.44
2023-05-19T13:33:07.944Z,101046.44
2023-05-19T13:35:35.360Z,101034.66
2023-05-19T13:38:09.139Z,101032.56
2023-05-19T13:40:35.896Z,101036.41
2023-05-19T13:43:03.978Z,101036.78
2023-05-19T13:45:35.323Z,101024.41
2023-05-19T13:48:02.229Z,101028.66
2023-05-19T13:50:31.681Z,101030.47
2023-05-19T13:52:58.462Z,101039.94
2023-05-19T13:55:25.951Z,101038.19
2023-05-19T13:57:54.315Z,101040.13
2023-05-19T14:00:25.780Z,101052.38
2023-05-19T14:02:53.705Z,101049.09
2023-05-19T14:05:20.475Z,101053.13
2023-05-19T14:07:47.133Z,101052.22
2023-05-19T14:10:15.632Z,101043.53
2023-05-19T14:13:07.853Z,101053.44
2023-05-19T14:15:29.134Z,101062.16
2023-05-19T14:17:55.891Z,101070.78
2023-05-19T14:20:27.859Z,101083.13
2023-05-19T14:22:55.903Z,101088.72
2023-05-19T14:25:22.812Z,101096.84
2023-05-19T14:27:49.615Z,101095.72
2023-05-19T14:30:16.372Z,101093.28
2023-05-19T14:32:43.240Z,101071.09
2023-05-19T14:35:10.528Z,101047.00
2023-05-19T14:37:37.269Z,101046.09
2023-05-19T14:40:04.236Z,101053.16
2023-05-19T14:42:31.071Z,101055.47
2023-05-19T14:45:04.170Z,101055.00
2023-05-19T14:47:31.111Z,101055.00
2023-05-19T14:49:57.852Z,101053.69
2023-05-19T14:52:24.662Z,101048.91
2023-05-19T14:54:51.345Z,101051.34
2023-05-19T14:57:19.542Z,101052.66
2023-05-19T14:59:46.430Z,101044.09
2023-05-19T15:02:13.345Z,101037.66
2023-05-19T15:04:40.188Z,101038.34
2023-05-19T15:07:10.974Z,101036.97
2023-05-19T15:09:38.238Z,101043.09
2023-05-19T15:12:06.457Z,101033.69
2023-05-19T15:14:35.697Z,101031.50
2023-05-19T15:17:02.643Z,101014.81
2023-05-19T15:19:32.262Z,101014.44
2023-05-19T15:21:59.082Z,101016.25
2023-05-19T15:24:26.020Z,101012.38
2023-05-19T15:26:56.104Z,101007.13
2023-05-19T15:29:22.770Z,101002.19
2023-05-19T15:31:52.525Z,101013.19
2023-05-19T15:34:20.101Z,101013.88
2023-05-19T15:36:47.126Z,101006.63
2023-05-19T15:39:14.041Z,101007.59
2023-05-19T15:41:40.868Z,101020.97
2023-05-19T15:44:10.630Z,101016.28
2023-05-19T15:46:37.478Z,101013.69
2023-05-19T15:49:04.639Z,101008.00
2023-05-19T15:51:31.394Z,100993.28
2023-05-19T15:53:58.603Z,100994.47
2023-05-19T15:56:25.358Z,100993.03
2023-05-19T15:58:55.052Z,100992.94
2023-05-19T16:01:21.889Z,100979.22
2023-05-19T16:03:51.670Z,100997.97
2023-05-19T16:06:18.681Z,100996.47
2023-05-19T16:08:45.395Z,100999.16
2023-05-19T16:11:12.119Z,101008.63
2023-05-19T16:13:38.789Z,101012.00
2023-05-19T16:16:06.135Z,101006.72
2023-05-19T16:18:32.925Z,101010.47
2023-05-19T16:20:59.747Z,101009.84
2023-05-19T16:23:26.458Z,101014.53
2023-05-19T16:25:53.836Z,101012.66
2023-05-19T16:28:22.563Z,101014.13
2023-05-19T16:30:55.112Z,101015.06
2023-05-19T16:33:21.769Z,101016.94
2023-05-19T16:35:49.615Z,101017.63
2023-05-19T16:38:21.831Z,101012.66
2023-05-19T16:40:48.552Z,101019.81
2023-05-19T16:43:15.202Z,101031.06
2023-05-19T16:45:42.077Z,101018.03
2023-05-19T16:48:09.757Z,101021.19
2023-05-19T16:50:36.837Z,101031.59
2023-05-19T16:53:03.891Z,101034.09
2023-05-19T16:55:39.687Z,101037.22
2023-05-19T16:58:06.447Z,101025.53
2023-05-19T17:00:34.484Z,101025.06
2023-05-19T17:03:01.555Z,101024.56
2023-05-19T17:05:29.596Z,101026.88
2023-05-19T17:07:56.272Z,101025.25
2023-05-19T17:10:22.981Z,101024.31
2023-05-19T17:12:53.488Z,101029.44
2023-05-19T17:15:20.209Z,101032.59
2023-05-19T17:17:46.889Z,101041.09
2023-05-19T17:20:16.502Z,101035.34
2023-05-19T17:22:45.792Z,101054.19
2023-05-19T17:25:15.353Z,101038.78
2023-05-19T17:27:42.095Z,101042.19
2023-05-19T17:30:11.428Z,101036.44
2023-05-19T17:32:38.281Z,101047.69
2023-05-19T17:35:06.402Z,101050.69
2023-05-19T17:37:33.389Z,101052.41
2023-05-19T17:40:00.552Z,101058.81
2023-05-19T17:42:27.306Z,101056.88
2023-05-19T17:44:54.125Z,101049.94
2023-05-19T17:47:21.001Z,101051.66
2023-05-19T17:49:50.325Z,101041.91
2023-05-19T17:52:27.098Z,101045.59
2023-05-19T17:54:57.255Z,101046.81
2023-05-19T17:57:25.953Z,101053.91
2023-05-19T17:59:53.189Z,101055.28
2023-05-19T18:02:20.246Z,101051.78
2023-05-19T18:04:47.325Z,101052.63
2023-05-19T18:07:22.132Z,101050.63
2023-05-19T18:09:54.273Z,101057.06
2023-05-19T18:12:24.001Z,101058.56
2023-05-19T18:14:50.742Z,101057.06
2023-05-19T18:17:17.606Z,101059.91
2023-05-19T18:19:44.304Z,101063.91
2023-05-19T18:22:13.237Z,101063.91
2023-05-19T18:24:39.992Z,101056.16
2023-05-19T18:27:09.756Z,101067.88
2023-05-19T18:29:43.595Z,101071.00
2023-05-19T18:32:10.604Z,101071.19
2023-05-19T18:34:52.900Z,101070.09
2023-05-19T18:37:25.516Z,101086.94
2023-05-19T18:39:57.578Z,101088.75
2023-05-19T18:42:24.363Z,101086.63
2023-05-19T18:45:00.284Z,101085.97
2023-05-19T18:47:30.075Z,101093.09
2023-05-19T18:49:58.070Z,101105.50
2023-05-19T18:52:24.931Z,101103.41
2023-05-19T18:54:51.702Z,101108.84
2023-05-19T18:57:18.543Z,101099.09
2023-05-19T18:59:45.420Z,101104.25
2023-05-19T19:02:12.183Z,101109.22
2023-05-19T19:04:39.477Z,101109.22
2023-05-19T19:07:06.148Z,101110.34
2023-05-19T19:09:39.029Z,101093.38
2023-05-19T19:12:05.978Z,101093.22
2023-05-19T19:14:35.685Z,101089.94
2023-05-19T19:17:02.397Z,101087.81
2023-05-19T19:19:29.229Z,101080.56
2023-05-19T19:21:57.169Z,101078.91
2023-05-19T19:24:25.859Z,101076.09
2023-05-19T19:26:52.603Z,101082.19
2023-05-19T19:29:19.242Z,101077.41
2023-05-19T19:31:46.106Z,101079.53
2023-05-19T19:34:14.709Z,101077.72
2023-05-19T19:36:41.444Z,101085.31
2023-05-19T19:39:08.107Z,101079.06
2023-05-19T19:41:34.766Z,101076.75
2023-05-19T19:44:05.622Z,101083.84
2023-05-19T19:46:32.542Z,101084.84
2023-05-19T19:48:59.306Z,101083.19
2023-05-19T19:51:27.048Z,101098.50
2023-05-19T19:53:54.029Z,101090.75
2023-05-19T19:56:20.834Z,101089.59
2023-05-19T19:58:47.679Z,101085.66
2023-05-19T20:01:14.363Z,101080.06
2023-05-19T20:03:48.197Z,101086.81
2023-05-19T20:06:15.122Z,101087.16
2023-05-19T20:08:41.908Z,101097.34
2023-05-19T20:11:08.694Z,101092.41
2023-05-19T20:13:35.514Z,101096.88
2023-05-19T20:16:03.352Z,101094.06
2023-05-19T20:18:30.196Z,101094.25
2023-05-19T20:20:57.279Z,101096.06
2023-05-19T20:23:24.993Z,101106.75
2023-05-19T20:26:09.986Z,101102.13
2023-05-19T20:28:38.254Z,101104.47
2023-05-19T20:31:05.226Z,101107.56
2023-05-19T20:33:33.614Z,101110.06
2023-05-19T20:36:01.958Z,101114.00
2023-05-19T20:38:28.727Z,101107.88
2023-05-19T20:40:55.426Z,101109.72
2023-05-19T20:43:22.103Z,101113.69
2023-05-19T20:45:48.906Z,101110.38
2023-05-19T20:48:17.776Z,101114.16
2023-05-19T20:50:48.202Z,101103.59
2023-05-19T20:53:14.995Z,101107.56
2023-05-19T20:55:44.608Z,101105.06
2023-05-19T20:58:12.126Z,101105.94
2023-05-19T21:00:38.937Z,101104.59
2023-05-19T21:03:05.859Z,101100.94
2023-05-19T21:05:32.793Z,101103.59
2023-05-19T21:07:59.604Z,101104.25
2023-05-19T21:10:26.343Z,101107.69
2023-05-19T21:12:53.143Z,101110.81
2023-05-19T21:15:20.023Z,101111.66
2023-05-19T21:17:46.896Z,101102.75
2023-05-19T21:20:13.642Z,101107.88
2023-05-19T21:22:43.524Z,101107.88
2023-05-19T21:25:10.298Z,101109.53
2023-05-19T21:27:37.012Z,101106.38
2023-05-19T21:30:03.895Z,101113.66
2023-05-19T21:32:30.739Z,101121.72
2023-05-19T21:35:00.527Z,101112.81
2023-05-19T21:37:27.653Z,101109.69
2023-05-19T21:39:54.328Z,101107.56
2023-05-19T21:42:21.107Z,101114.28
2023-05-19T21:44:47.804Z,101111.97
2023-05-19T21:47:16.983Z,101113.94
2023-05-19T21:49:44.022Z,101122.19
2023-05-19T21:52:10.757Z,101108.84
2023-05-19T21:54:37.480Z,101111.13
2023-05-19T21:57:04.447Z,101118.06
2023-05-19T21:59:31.168Z,101114.44
2023-05-19T22:01:58.525Z,101114.44
2023-05-19T22:04:25.296Z,101111.31
2023-05-19T22:06:55.953Z,101106.88
2023-05-19T22:09:22.736Z,101104.06
2023-05-19T22:11:51.230Z,101108.00
2023-05-19T22:14:29.999Z,101098.06
2023-05-19T22:16:57.486Z,101113.53
2023-05-19T22:19:24.236Z,101103.34
2023-05-19T22:21:58.423Z,101107.91
2023-05-19T22:24:36.095Z,101100.69
2023-05-19T22:27:03.437Z,101110.69
2023-05-19T22:29:30.095Z,101105.44
2023-05-19T22:31:56.906Z,101101.44
2023-05-19T22:34:23.695Z,101110.66
2023-05-19T22:36:52.163Z,101105.19
2023-05-19T22:39:28.260Z,101115.22
2023-05-19T22:41:57.383Z,101106.16
2023-05-19T22:44:26.188Z,101100.53
2023-05-19T22:46:53.050Z,101107.44
2023-05-19T22:49:22.015Z,101113.31
2023-05-19T22:51:49.805Z,101111.28
2023-05-19T22:54:21.407Z,101109.25
2023-05-19T22:56:48.081Z,101103.38
2023-05-19T22:59:23.973Z,101099.38
2023-05-19T23:01:50.865Z,101099.38
2023-05-19T23:04:17.622Z,101093.41
2023-05-19T23:06:44.575Z,101088.44
2023-05-19T23:09:13.038Z,101082.19
2023-05-19T23:11:39.717Z,101085.59
2023-05-19T23:14:07.332Z,101086.34
2023-05-19T23:16:35.433Z,101089.56
2023-05-19T23:19:02.531Z,101100.38
2023-05-19T23:21:30.616Z,101099.97
2023-05-19T23:23:57.469Z,101090.78
2023-05-19T23:26:24.189Z,101097.00
2023-05-19T23:28:53.455Z,101082.22
2023-05-19T23:31:20.256Z,101095.47
2023-05-19T23:33:47.020Z,101093.63
2023-05-19T23:36:19.048Z,101094.38
2023-05-19T23:38:48.555Z,101076.41
2023-05-19T23:41:15.385Z,101085.84
2023-05-19T23:43:44.855Z,101085.53
2023-05-19T23:46:20.927Z,101084.72
2023-05-19T23:48:49.060Z,101096.91
2023-05-19T23:51:15.898Z,101085.56
2023-05-19T23:53:42.838Z,101069.75
2023-05-19T23:56:10.111Z,101076.78
2023-05-19T23:58:37.090Z,101074.41
